sensor_id;sensor_type;location;lat;lon;timestamp;temperature;humidity
5466;DHT22;2755;50.728;7.108;2023-07-09T00:00:52;23.00;1.00
5466;DHT22;2755;50.728;7.108;2023-07-09T00:03:19;23.10;1.00
5466;DHT22;2755;50.728;7.108;2023-07-09T00:05:49;23.00;1.00
5466;DHT22;2755;50.728;7.108;2023-07-09T00:08:28;23.10;1.00
5466;DHT22;2755;50.728;7.108;2023-07-09T00:10:55;22.80;1.00
5466;DHT22;2755;50.728;7.108;2023-07-09T00:13:21;21.50;1.00
5466;DHT22;2755;50.728;7.108;2023-07-09T00:15:48;22.40;1.00
5466;DHT22;2755;50.728;7.108;2023-07-09T00:18:13;22.40;1.00
5466;DHT22;2755;50.728;7.108;2023-07-09T00:23:09;22.50;1.00
5466;DHT22;2755;50.728;7.108;2023-07-09T00:25:41;22.90;1.00
5466;DHT22;2755;50.728;7.108;2023-07-09T00:28:18;22.40;1.00
5466;DHT22;2755;50.728;7.108;2023-07-09T00:35:44;22.10;1.00
5466;DHT22;2755;50.728;7.108;2023-07-09T00:41:12;22.20;1.00
5466;DHT22;2755;50.728;7.108;2023-07-09T00:43:43;22.10;1.00
5466;DHT22;2755;50.728;7.108;2023-07-09T00:49:04;21.50;1.00
5466;DHT22;2755;50.728;7.108;2023-07-09T00:51:37;21.70;1.00
5466;DHT22;2755;50.728;7.108;2023-07-09T00:54:18;21.90;1.00
5466;DHT22;2755;50.728;7.108;2023-07-09T00:56:46;22.80;1.00
5466;DHT22;2755;50.728;7.108;2023-07-09T00:59:20;22.20;1.00
5466;DHT22;2755;50.728;7.108;2023-07-09T01:01:46;22.00;1.00
5466;DHT22;2755;50.728;7.108;2023-07-09T01:04:16;21.70;1.00
5466;DHT22;2755;50.728;7.108;2023-07-09T01:06:50;21.70;1.00
5466;DHT22;2755;50.728;7.108;2023-07-09T01:09:17;21.70;1.00
5466;DHT22;2755;50.728;7.108;2023-07-09T01:11:42;21.60;1.00
5466;DHT22;2755;50.728;7.108;2023-07-09T01:14:10;21.80;1.00
5466;DHT22;2755;50.728;7.108;2023-07-09T01:16:41;21.90;1.00
5466;DHT22;2755;50.728;7.108;2023-07-09T01:21:34;21.10;1.00
5466;DHT22;2755;50.728;7.108;2023-07-09T01:24:15;21.40;1.00
5466;DHT22;2755;50.728;7.108;2023-07-09T01:29:08;21.20;1.00
5466;DHT22;2755;50.728;7.108;2023-07-09T01:31:34;21.30;1.00
5466;DHT22;2755;50.728;7.108;2023-07-09T01:34:00;20.40;1.00
5466;DHT22;2755;50.728;7.108;2023-07-09T01:38:53;21.20;1.10
5466;DHT22;2755;50.728;7.108;2023-07-09T01:41:19;20.80;4.00
5466;DHT22;2755;50.728;7.108;2023-07-09T01:43:46;21.50;6.70
5466;DHT22;2755;50.728;7.108;2023-07-09T01:46:12;21.20;6.90
5466;DHT22;2755;50.728;7.108;2023-07-09T01:48:38;21.00;5.30
5466;DHT22;2755;50.728;7.108;2023-07-09T01:51:09;21.10;4.20
5466;DHT22;2755;50.728;7.108;2023-07-09T01:53:35;21.10;8.70
5466;DHT22;2755;50.728;7.108;2023-07-09T01:56:03;21.40;6.30
5466;DHT22;2755;50.728;7.108;2023-07-09T02:00:57;21.30;9.80
5466;DHT22;2755;50.728;7.108;2023-07-09T02:05:52;20.80;10.10
5466;DHT22;2755;50.728;7.108;2023-07-09T02:08:19;20.80;14.60
5466;DHT22;2755;50.728;7.108;2023-07-09T02:10:47;19.60;11.30
5466;DHT22;2755;50.728;7.108;2023-07-09T02:13:13;21.00;14.90
5466;DHT22;2755;50.728;7.108;2023-07-09T02:15:39;20.50;14.90
5466;DHT22;2755;50.728;7.108;2023-07-09T02:18:09;20.60;16.00
5466;DHT22;2755;50.728;7.108;2023-07-09T02:27:52;20.70;14.30
5466;DHT22;2755;50.728;7.108;2023-07-09T02:30:18;20.50;14.60
5466;DHT22;2755;50.728;7.108;2023-07-09T02:32:43;20.70;15.60
5466;DHT22;2755;50.728;7.108;2023-07-09T02:37:35;20.60;17.90
5466;DHT22;2755;50.728;7.108;2023-07-09T02:42:26;20.20;15.90
5466;DHT22;2755;50.728;7.108;2023-07-09T02:52:10;19.80;17.50
5466;DHT22;2755;50.728;7.108;2023-07-09T02:57:02;19.70;14.90
5466;DHT22;2755;50.728;7.108;2023-07-09T03:01:55;20.10;17.40
5466;DHT22;2755;50.728;7.108;2023-07-09T03:04:20;18.70;16.70
5466;DHT22;2755;50.728;7.108;2023-07-09T03:06:46;19.70;15.00
5466;DHT22;2755;50.728;7.108;2023-07-09T03:09:12;20.00;13.60
5466;DHT22;2755;50.728;7.108;2023-07-09T03:11:38;20.20;15.20
5466;DHT22;2755;50.728;7.108;2023-07-09T03:14:04;20.20;17.10
5466;DHT22;2755;50.728;7.108;2023-07-09T03:16:31;20.20;16.30
5466;DHT22;2755;50.728;7.108;2023-07-09T03:21:25;19.70;18.20
5466;DHT22;2755;50.728;7.108;2023-07-09T03:23:51;19.90;16.30
5466;DHT22;2755;50.728;7.108;2023-07-09T03:28:42;19.40;20.00
5466;DHT22;2755;50.728;7.108;2023-07-09T03:36:00;20.20;21.80
5466;DHT22;2755;50.728;7.108;2023-07-09T03:40:52;20.20;22.30
5466;DHT22;2755;50.728;7.108;2023-07-09T03:43:18;19.80;21.90
5466;DHT22;2755;50.728;7.108;2023-07-09T03:45:45;19.80;22.10
5466;DHT22;2755;50.728;7.108;2023-07-09T03:48:11;18.90;21.80
5466;DHT22;2755;50.728;7.108;2023-07-09T03:50:37;19.50;22.70
5466;DHT22;2755;50.728;7.108;2023-07-09T03:53:03;19.70;21.10
5466;DHT22;2755;50.728;7.108;2023-07-09T03:55:31;20.30;24.70
5466;DHT22;2755;50.728;7.108;2023-07-09T03:57:57;20.60;24.80
5466;DHT22;2755;50.728;7.108;2023-07-09T04:00:23;19.60;23.90
5466;DHT22;2755;50.728;7.108;2023-07-09T04:02:49;19.50;23.30
5466;DHT22;2755;50.728;7.108;2023-07-09T04:07:41;19.80;20.80
5466;DHT22;2755;50.728;7.108;2023-07-09T04:10:06;19.10;23.50
5466;DHT22;2755;50.728;7.108;2023-07-09T04:17:24;20.20;21.40
5466;DHT22;2755;50.728;7.108;2023-07-09T04:19:50;19.90;21.30
5466;DHT22;2755;50.728;7.108;2023-07-09T04:22:16;20.00;21.30
5466;DHT22;2755;50.728;7.108;2023-07-09T04:24:42;20.50;24.70
5466;DHT22;2755;50.728;7.108;2023-07-09T04:27:08;20.50;24.10
5466;DHT22;2755;50.728;7.108;2023-07-09T04:32:18;20.30;23.00
5466;DHT22;2755;50.728;7.108;2023-07-09T04:34:44;19.80;22.30
5466;DHT22;2755;50.728;7.108;2023-07-09T04:37:10;20.20;19.80
5466;DHT22;2755;50.728;7.108;2023-07-09T04:39:37;20.60;20.80
5466;DHT22;2755;50.728;7.108;2023-07-09T04:42:04;20.90;18.20
5466;DHT22;2755;50.728;7.108;2023-07-09T04:44:30;20.90;20.70
5466;DHT22;2755;50.728;7.108;2023-07-09T04:46:56;20.60;20.20
5466;DHT22;2755;50.728;7.108;2023-07-09T04:49:21;20.80;19.80
5466;DHT22;2755;50.728;7.108;2023-07-09T04:51:47;21.00;17.60
5466;DHT22;2755;50.728;7.108;2023-07-09T04:54:12;21.30;20.30
5466;DHT22;2755;50.728;7.108;2023-07-09T04:56:39;21.00;15.90
5466;DHT22;2755;50.728;7.108;2023-07-09T04:59:04;21.00;18.00
5466;DHT22;2755;50.728;7.108;2023-07-09T05:01:30;21.10;17.10
5466;DHT22;2755;50.728;7.108;2023-07-09T05:03:55;22.00;17.10
5466;DHT22;2755;50.728;7.108;2023-07-09T05:06:21;21.80;14.10
5466;DHT22;2755;50.728;7.108;2023-07-09T05:08:48;21.90;16.30
5466;DHT22;2755;50.728;7.108;2023-07-09T05:11:14;22.10;16.00
5466;DHT22;2755;50.728;7.108;2023-07-09T05:13:40;21.20;12.60
5466;DHT22;2755;50.728;7.108;2023-07-09T05:16:06;23.30;11.10
5466;DHT22;2755;50.728;7.108;2023-07-09T05:20:57;23.20;6.70
5466;DHT22;2755;50.728;7.108;2023-07-09T05:23:25;22.00;7.90
5466;DHT22;2755;50.728;7.108;2023-07-09T05:25:56;22.80;3.40
5466;DHT22;2755;50.728;7.108;2023-07-09T05:28:22;23.20;5.10
5466;DHT22;2755;50.728;7.108;2023-07-09T05:30:47;23.30;1.00
5466;DHT22;2755;50.728;7.108;2023-07-09T05:33:13;22.90;1.00
5466;DHT22;2755;50.728;7.108;2023-07-09T05:35:39;22.90;1.00
5466;DHT22;2755;50.728;7.108;2023-07-09T05:40:30;23.30;1.00
5466;DHT22;2755;50.728;7.108;2023-07-09T05:42:56;23.30;1.00
5466;DHT22;2755;50.728;7.108;2023-07-09T05:45:21;23.70;1.00
5466;DHT22;2755;50.728;7.108;2023-07-09T05:47:47;23.60;1.00
5466;DHT22;2755;50.728;7.108;2023-07-09T05:52:38;24.00;1.00
5466;DHT22;2755;50.728;7.108;2023-07-09T05:55:04;24.00;1.00
5466;DHT22;2755;50.728;7.108;2023-07-09T05:57:30;24.90;1.00
5466;DHT22;2755;50.728;7.108;2023-07-09T05:59:56;24.10;1.00
5466;DHT22;2755;50.728;7.108;2023-07-09T06:04:48;24.90;1.00
5466;DHT22;2755;50.728;7.108;2023-07-09T06:07:17;25.30;1.00
5466;DHT22;2755;50.728;7.108;2023-07-09T06:09:44;25.50;1.00
5466;DHT22;2755;50.728;7.108;2023-07-09T06:12:11;25.90;1.00
5466;DHT22;2755;50.728;7.108;2023-07-09T06:14:37;26.00;1.00
5466;DHT22;2755;50.728;7.108;2023-07-09T06:17:03;26.50;1.00
5466;DHT22;2755;50.728;7.108;2023-07-09T06:19:28;26.10;1.00
5466;DHT22;2755;50.728;7.108;2023-07-09T06:24:21;26.70;1.00
5466;DHT22;2755;50.728;7.108;2023-07-09T06:31:39;27.20;1.00
5466;DHT22;2755;50.728;7.108;2023-07-09T06:34:08;26.70;1.00
5466;DHT22;2755;50.728;7.108;2023-07-09T06:36:35;27.10;1.00
5466;DHT22;2755;50.728;7.108;2023-07-09T06:39:01;27.30;1.00
5466;DHT22;2755;50.728;7.108;2023-07-09T06:41:26;27.80;1.00
5466;DHT22;2755;50.728;7.108;2023-07-09T06:43:53;27.00;1.00
5466;DHT22;2755;50.728;7.108;2023-07-09T06:46:19;27.30;1.00
5466;DHT22;2755;50.728;7.108;2023-07-09T06:48:45;27.70;1.00
5466;DHT22;2755;50.728;7.108;2023-07-09T06:51:11;27.40;1.00
5466;DHT22;2755;50.728;7.108;2023-07-09T06:53:37;27.60;1.00
5466;DHT22;2755;50.728;7.108;2023-07-09T06:56:02;27.70;1.00
5466;DHT22;2755;50.728;7.108;2023-07-09T06:58:30;28.20;1.00
5466;DHT22;2755;50.728;7.108;2023-07-09T07:00:57;27.20;1.00
5466;DHT22;2755;50.728;7.108;2023-07-09T07:03:23;27.40;1.00
5466;DHT22;2755;50.728;7.108;2023-07-09T07:05:52;27.70;1.00
5466;DHT22;2755;50.728;7.108;2023-07-09T07:08:20;27.90;1.00
5466;DHT22;2755;50.728;7.108;2023-07-09T07:10:48;28.10;1.00
5466;DHT22;2755;50.728;7.108;2023-07-09T07:13:14;28.10;1.00
5466;DHT22;2755;50.728;7.108;2023-07-09T07:15:40;28.80;1.00
5466;DHT22;2755;50.728;7.108;2023-07-09T07:18:06;28.90;1.00
5466;DHT22;2755;50.728;7.108;2023-07-09T07:20:33;29.20;1.00
5466;DHT22;2755;50.728;7.108;2023-07-09T07:27:51;30.00;1.00
5466;DHT22;2755;50.728;7.108;2023-07-09T07:30:17;29.10;1.00
5466;DHT22;2755;50.728;7.108;2023-07-09T07:32:48;30.00;1.00
5466;DHT22;2755;50.728;7.108;2023-07-09T07:37:41;30.80;1.00
5466;DHT22;2755;50.728;7.108;2023-07-09T07:40:08;30.20;1.00
5466;DHT22;2755;50.728;7.108;2023-07-09T07:42:34;30.70;1.00
5466;DHT22;2755;50.728;7.108;2023-07-09T07:45:00;30.80;1.00
5466;DHT22;2755;50.728;7.108;2023-07-09T07:47:26;31.00;1.00
5466;DHT22;2755;50.728;7.108;2023-07-09T07:49:55;30.70;1.00
5466;DHT22;2755;50.728;7.108;2023-07-09T07:54:47;31.40;1.00
5466;DHT22;2755;50.728;7.108;2023-07-09T07:57:12;31.90;1.00
5466;DHT22;2755;50.728;7.108;2023-07-09T07:59:38;31.20;1.00
5466;DHT22;2755;50.728;7.108;2023-07-09T08:02:06;32.00;1.00
5466;DHT22;2755;50.728;7.108;2023-07-09T08:04:35;31.10;1.00
5466;DHT22;2755;50.728;7.108;2023-07-09T08:07:02;32.50;1.00
5466;DHT22;2755;50.728;7.108;2023-07-09T08:12:01;32.70;1.00
5466;DHT22;2755;50.728;7.108;2023-07-09T08:14:30;32.30;1.00
5466;DHT22;2755;50.728;7.108;2023-07-09T08:16:56;32.60;1.00
5466;DHT22;2755;50.728;7.108;2023-07-09T08:19:21;32.60;1.00
5466;DHT22;2755;50.728;7.108;2023-07-09T08:21:47;32.80;1.00
5466;DHT22;2755;50.728;7.108;2023-07-09T08:24:13;33.10;1.00
5466;DHT22;2755;50.728;7.108;2023-07-09T08:26:40;32.90;1.00
5466;DHT22;2755;50.728;7.108;2023-07-09T08:29:05;32.00;1.00
5466;DHT22;2755;50.728;7.108;2023-07-09T08:31:31;33.30;1.00
5466;DHT22;2755;50.728;7.108;2023-07-09T08:33:56;33.10;1.00
5466;DHT22;2755;50.728;7.108;2023-07-09T08:36:23;33.80;1.00
5466;DHT22;2755;50.728;7.108;2023-07-09T08:38:49;33.20;1.00
5466;DHT22;2755;50.728;7.108;2023-07-09T08:41:37;33.30;1.00
5466;DHT22;2755;50.728;7.108;2023-07-09T08:44:14;33.20;1.00
5466;DHT22;2755;50.728;7.108;2023-07-09T08:47:07;33.40;1.00
5466;DHT22;2755;50.728;7.108;2023-07-09T08:50:01;33.70;1.00
5466;DHT22;2755;50.728;7.108;2023-07-09T08:52:37;33.80;1.00
5466;DHT22;2755;50.728;7.108;2023-07-09T08:55:08;34.50;1.00
5466;DHT22;2755;50.728;7.108;2023-07-09T08:57:38;34.00;1.00
5466;DHT22;2755;50.728;7.108;2023-07-09T09:00:29;34.20;1.00
5466;DHT22;2755;50.728;7.108;2023-07-09T09:03:46;34.40;1.00
5466;DHT22;2755;50.728;7.108;2023-07-09T09:05:46;34.50;1.00
5466;DHT22;2755;50.728;7.108;2023-07-09T09:14:02;35.00;1.00
5466;DHT22;2755;50.728;7.108;2023-07-09T09:16:32;35.10;1.00
5466;DHT22;2755;50.728;7.108;2023-07-09T09:19:00;34.70;1.00
5466;DHT22;2755;50.728;7.108;2023-07-09T09:21:35;35.50;1.00
5466;DHT22;2755;50.728;7.108;2023-07-09T09:26:43;35.90;1.00
5466;DHT22;2755;50.728;7.108;2023-07-09T09:29:14;35.90;1.00
5466;DHT22;2755;50.728;7.108;2023-07-09T09:31:41;36.00;1.00
5466;DHT22;2755;50.728;7.108;2023-07-09T09:34:20;35.90;1.00
5466;DHT22;2755;50.728;7.108;2023-07-09T09:36:47;36.80;1.00
5466;DHT22;2755;50.728;7.108;2023-07-09T09:41:39;35.90;1.00
5466;DHT22;2755;50.728;7.108;2023-07-09T09:44:15;36.00;1.00
5466;DHT22;2755;50.728;7.108;2023-07-09T09:46:42;36.50;1.00
5466;DHT22;2755;50.728;7.108;2023-07-09T09:49:10;36.80;1.00
5466;DHT22;2755;50.728;7.108;2023-07-09T09:51:39;36.80;1.00
5466;DHT22;2755;50.728;7.108;2023-07-09T09:54:30;37.20;1.00
5466;DHT22;2755;50.728;7.108;2023-07-09T09:56:56;37.30;1.00
5466;DHT22;2755;50.728;7.108;2023-07-09T09:59:30;37.00;1.00
5466;DHT22;2755;50.728;7.108;2023-07-09T10:02:02;37.10;1.00
5466;DHT22;2755;50.728;7.108;2023-07-09T10:04:28;37.90;1.00
5466;DHT22;2755;50.728;7.108;2023-07-09T10:07:01;37.00;1.00
5466;DHT22;2755;50.728;7.108;2023-07-09T10:09:52;37.30;1.00
5466;DHT22;2755;50.728;7.108;2023-07-09T10:15:16;37.00;1.00
5466;DHT22;2755;50.728;7.108;2023-07-09T10:20:43;37.00;1.00
5466;DHT22;2755;50.728;7.108;2023-07-09T10:23:25;37.30;1.00
5466;DHT22;2755;50.728;7.108;2023-07-09T10:26:15;37.40;1.00
5466;DHT22;2755;50.728;7.108;2023-07-09T10:28:58;37.60;1.00
5466;DHT22;2755;50.728;7.108;2023-07-09T10:31:35;37.90;1.00
5466;DHT22;2755;50.728;7.108;2023-07-09T10:34:34;37.60;1.00
5466;DHT22;2755;50.728;7.108;2023-07-09T10:42:27;38.30;1.00
5466;DHT22;2755;50.728;7.108;2023-07-09T10:44:57;37.30;1.00
5466;DHT22;2755;50.728;7.108;2023-07-09T10:47:29;37.60;1.00
5466;DHT22;2755;50.728;7.108;2023-07-09T10:49:56;37.50;1.00
5466;DHT22;2755;50.728;7.108;2023-07-09T10:52:29;37.60;1.00
5466;DHT22;2755;50.728;7.108;2023-07-09T10:55:17;37.00;1.00
5466;DHT22;2755;50.728;7.108;2023-07-09T10:57:54;35.50;1.00
5466;DHT22;2755;50.728;7.108;2023-07-09T11:00:35;37.80;1.00
5466;DHT22;2755;50.728;7.108;2023-07-09T11:03:19;37.20;1.00
5466;DHT22;2755;50.728;7.108;2023-07-09T11:05:48;37.90;1.00
5466;DHT22;2755;50.728;7.108;2023-07-09T11:08:26;37.90;1.00
5466;DHT22;2755;50.728;7.108;2023-07-09T11:10:56;38.70;1.00
5466;DHT22;2755;50.728;7.108;2023-07-09T11:18:35;37.60;1.00
5466;DHT22;2755;50.728;7.108;2023-07-09T11:21:05;37.80;1.00
5466;DHT22;2755;50.728;7.108;2023-07-09T11:26:28;37.80;1.00
5466;DHT22;2755;50.728;7.108;2023-07-09T11:36:56;38.00;1.00
5466;DHT22;2755;50.728;7.108;2023-07-09T11:39:41;38.10;1.00
5466;DHT22;2755;50.728;7.108;2023-07-09T11:42:28;38.10;1.00
5466;DHT22;2755;50.728;7.108;2023-07-09T11:45:06;38.30;1.00
5466;DHT22;2755;50.728;7.108;2023-07-09T11:55:43;39.10;1.00
5466;DHT22;2755;50.728;7.108;2023-07-09T11:58:14;39.50;1.00
5466;DHT22;2755;50.728;7.108;2023-07-09T12:00:45;39.90;1.00
5466;DHT22;2755;50.728;7.108;2023-07-09T12:05:56;39.80;1.00
5466;DHT22;2755;50.728;7.108;2023-07-09T12:08:27;39.80;1.00
5466;DHT22;2755;50.728;7.108;2023-07-09T12:10:54;39.20;1.00
5466;DHT22;2755;50.728;7.108;2023-07-09T12:13:20;39.10;1.00
5466;DHT22;2755;50.728;7.108;2023-07-09T12:15:46;40.30;1.00
5466;DHT22;2755;50.728;7.108;2023-07-09T12:20:41;37.50;1.00
5466;DHT22;2755;50.728;7.108;2023-07-09T12:23:30;37.20;1.00
5466;DHT22;2755;50.728;7.108;2023-07-09T12:28:53;36.80;1.00
5466;DHT22;2755;50.728;7.108;2023-07-09T12:33:52;36.70;1.00
5466;DHT22;2755;50.728;7.108;2023-07-09T12:36:19;36.00;1.00
5466;DHT22;2755;50.728;7.108;2023-07-09T12:38:49;35.50;1.00
5466;DHT22;2755;50.728;7.108;2023-07-09T12:41:23;36.10;1.00
5466;DHT22;2755;50.728;7.108;2023-07-09T12:43:50;36.20;1.00
5466;DHT22;2755;50.728;7.108;2023-07-09T12:46:17;36.50;1.00
5466;DHT22;2755;50.728;7.108;2023-07-09T12:48:44;36.30;1.00
5466;DHT22;2755;50.728;7.108;2023-07-09T12:51:16;36.90;1.00
5466;DHT22;2755;50.728;7.108;2023-07-09T12:53:43;38.50;1.00
5466;DHT22;2755;50.728;7.108;2023-07-09T12:56:12;37.40;1.00
5466;DHT22;2755;50.728;7.108;2023-07-09T13:01:07;37.30;1.00
5466;DHT22;2755;50.728;7.108;2023-07-09T13:06:02;37.00;1.00
5466;DHT22;2755;50.728;7.108;2023-07-09T13:08:31;36.80;1.00
5466;DHT22;2755;50.728;7.108;2023-07-09T13:10:57;36.90;1.00
5466;DHT22;2755;50.728;7.108;2023-07-09T13:13:24;37.50;1.00
5466;DHT22;2755;50.728;7.108;2023-07-09T13:15:57;36.70;1.00
5466;DHT22;2755;50.728;7.108;2023-07-09T13:18:25;36.60;1.00
5466;DHT22;2755;50.728;7.108;2023-07-09T13:20:54;36.30;1.00
5466;DHT22;2755;50.728;7.108;2023-07-09T13:23:23;36.00;1.00
5466;DHT22;2755;50.728;7.108;2023-07-09T13:25:50;35.80;1.00
5466;DHT22;2755;50.728;7.108;2023-07-09T13:33:09;35.20;1.00
5466;DHT22;2755;50.728;7.108;2023-07-09T13:42:57;36.30;1.00
5466;DHT22;2755;50.728;7.108;2023-07-09T13:47:53;36.20;1.00
5466;DHT22;2755;50.728;7.108;2023-07-09T13:50:19;35.70;1.00
5466;DHT22;2755;50.728;7.108;2023-07-09T13:52:46;35.50;1.00
5466;DHT22;2755;50.728;7.108;2023-07-09T13:55:20;35.60;1.00
5466;DHT22;2755;50.728;7.108;2023-07-09T13:57:47;35.10;1.00
5466;DHT22;2755;50.728;7.108;2023-07-09T14:00:13;35.00;1.00
5466;DHT22;2755;50.728;7.108;2023-07-09T14:02:39;34.40;1.00
5466;DHT22;2755;50.728;7.108;2023-07-09T14:05:06;33.90;1.00
5466;DHT22;2755;50.728;7.108;2023-07-09T14:07:34;34.00;1.00
5466;DHT22;2755;50.728;7.108;2023-07-09T14:10:01;33.80;1.00
5466;DHT22;2755;50.728;7.108;2023-07-09T14:12:28;34.10;1.00
5466;DHT22;2755;50.728;7.108;2023-07-09T14:17:23;33.60;1.00
5466;DHT22;2755;50.728;7.108;2023-07-09T14:27:16;33.50;1.00
5466;DHT22;2755;50.728;7.108;2023-07-09T14:34:51;32.90;1.00
5466;DHT22;2755;50.728;7.108;2023-07-09T14:37:16;32.30;1.00
5466;DHT22;2755;50.728;7.108;2023-07-09T14:39:42;32.20;1.00
5466;DHT22;2755;50.728;7.108;2023-07-09T14:42:12;32.20;1.00
5466;DHT22;2755;50.728;7.108;2023-07-09T14:44:40;31.90;1.00
5466;DHT22;2755;50.728;7.108;2023-07-09T14:47:24;31.30;1.00
5466;DHT22;2755;50.728;7.108;2023-07-09T14:49:50;31.90;1.00
5466;DHT22;2755;50.728;7.108;2023-07-09T14:52:20;29.80;1.00
5466;DHT22;2755;50.728;7.108;2023-07-09T14:54:48;29.20;1.00
5466;DHT22;2755;50.728;7.108;2023-07-09T14:59:46;27.90;1.00
5466;DHT22;2755;50.728;7.108;2023-07-09T15:07:15;27.10;1.00
5466;DHT22;2755;50.728;7.108;2023-07-09T15:09:40;27.10;1.00
5466;DHT22;2755;50.728;7.108;2023-07-09T15:12:20;28.00;1.00
5466;DHT22;2755;50.728;7.108;2023-07-09T15:17:13;26.90;1.00
5466;DHT22;2755;50.728;7.108;2023-07-09T15:19:39;27.10;1.00
5466;DHT22;2755;50.728;7.108;2023-07-09T15:22:05;26.80;1.00
5466;DHT22;2755;50.728;7.108;2023-07-09T15:24:33;26.90;1.00
5466;DHT22;2755;50.728;7.108;2023-07-09T15:29:27;25.90;1.00
5466;DHT22;2755;50.728;7.108;2023-07-09T15:31:53;25.80;1.00
5466;DHT22;2755;50.728;7.108;2023-07-09T15:34:19;24.80;2.00
5466;DHT22;2755;50.728;7.108;2023-07-09T15:36:50;25.60;15.90
5466;DHT22;2755;50.728;7.108;2023-07-09T15:39:17;23.80;16.70
5466;DHT22;2755;50.728;7.108;2023-07-09T15:41:43;24.00;26.50
5466;DHT22;2755;50.728;7.108;2023-07-09T15:44:17;23.80;27.20
5466;DHT22;2755;50.728;7.108;2023-07-09T15:46:55;23.40;41.80
5466;DHT22;2755;50.728;7.108;2023-07-09T15:49:21;23.30;40.20
5466;DHT22;2755;50.728;7.108;2023-07-09T15:54:18;23.30;47.80
5466;DHT22;2755;50.728;7.108;2023-07-09T15:56:46;23.20;46.30
5466;DHT22;2755;50.728;7.108;2023-07-09T15:59:32;23.30;56.70
5466;DHT22;2755;50.728;7.108;2023-07-09T16:01:59;23.00;60.20
5466;DHT22;2755;50.728;7.108;2023-07-09T16:04:26;21.70;60.90
5466;DHT22;2755;50.728;7.108;2023-07-09T16:06:53;22.60;69.00
5466;DHT22;2755;50.728;7.108;2023-07-09T16:09:21;22.50;71.70
5466;DHT22;2755;50.728;7.108;2023-07-09T16:11:50;22.40;80.20
5466;DHT22;2755;50.728;7.108;2023-07-09T16:16:45;22.20;91.10
5466;DHT22;2755;50.728;7.108;2023-07-09T16:24:21;22.00;95.80
5466;DHT22;2755;50.728;7.108;2023-07-09T16:26:47;22.60;99.90
5466;DHT22;2755;50.728;7.108;2023-07-09T16:29:21;22.20;99.80
5466;DHT22;2755;50.728;7.108;2023-07-09T16:31:48;22.20;99.90
5466;DHT22;2755;50.728;7.108;2023-07-09T16:34:15;21.50;99.90
5466;DHT22;2755;50.728;7.108;2023-07-09T16:36:41;22.10;99.90
5466;DHT22;2755;50.728;7.108;2023-07-09T16:39:28;22.00;99.90
5466;DHT22;2755;50.728;7.108;2023-07-09T16:41:55;22.00;99.90
5466;DHT22;2755;50.728;7.108;2023-07-09T16:44:21;22.50;99.90
5466;DHT22;2755;50.728;7.108;2023-07-09T16:46:51;22.60;99.90
5466;DHT22;2755;50.728;7.108;2023-07-09T16:49:39;22.00;99.90
5466;DHT22;2755;50.728;7.108;2023-07-09T16:52:15;22.00;99.90
5466;DHT22;2755;50.728;7.108;2023-07-09T16:54:41;21.60;99.90
5466;DHT22;2755;50.728;7.108;2023-07-09T16:57:12;22.20;99.90
5466;DHT22;2755;50.728;7.108;2023-07-09T17:02:29;22.20;99.90
5466;DHT22;2755;50.728;7.108;2023-07-09T17:05:00;21.90;99.90
5466;DHT22;2755;50.728;7.108;2023-07-09T17:09:53;22.50;99.90
5466;DHT22;2755;50.728;7.108;2023-07-09T17:12:19;22.30;99.90
5466;DHT22;2755;50.728;7.108;2023-07-09T17:17:16;22.50;99.90
5466;DHT22;2755;50.728;7.108;2023-07-09T17:19:44;22.60;99.90
5466;DHT22;2755;50.728;7.108;2023-07-09T17:22:18;21.80;99.90
5466;DHT22;2755;50.728;7.108;2023-07-09T17:27:12;22.80;99.90
5466;DHT22;2755;50.728;7.108;2023-07-09T17:29:42;19.90;99.40
5466;DHT22;2755;50.728;7.108;2023-07-09T17:32:08;22.80;99.90
5466;DHT22;2755;50.728;7.108;2023-07-09T17:37:02;23.60;99.90
5466;DHT22;2755;50.728;7.108;2023-07-09T17:39:28;23.40;99.90
5466;DHT22;2755;50.728;7.108;2023-07-09T17:41:53;23.50;99.90
5466;DHT22;2755;50.728;7.108;2023-07-09T17:44:23;23.50;98.90
5466;DHT22;2755;50.728;7.108;2023-07-09T17:49:30;23.50;98.00
5466;DHT22;2755;50.728;7.108;2023-07-09T17:51:56;22.50;98.90
5466;DHT22;2755;50.728;7.108;2023-07-09T17:54:24;23.50;97.20
5466;DHT22;2755;50.728;7.108;2023-07-09T17:59:21;23.60;97.80
5466;DHT22;2755;50.728;7.108;2023-07-09T18:01:56;23.30;95.80
5466;DHT22;2755;50.728;7.108;2023-07-09T18:06:50;23.50;96.00
5466;DHT22;2755;50.728;7.108;2023-07-09T18:11:48;24.40;96.10
5466;DHT22;2755;50.728;7.108;2023-07-09T18:16:49;23.60;96.60
5466;DHT22;2755;50.728;7.108;2023-07-09T18:19:27;23.90;94.50
5466;DHT22;2755;50.728;7.108;2023-07-09T18:22:01;23.90;94.20
5466;DHT22;2755;50.728;7.108;2023-07-09T18:24:27;23.90;93.40
5466;DHT22;2755;50.728;7.108;2023-07-09T18:26:54;23.70;94.20
5466;DHT22;2755;50.728;7.108;2023-07-09T18:29:30;24.10;93.60
5466;DHT22;2755;50.728;7.108;2023-07-09T18:34:25;24.30;94.30
5466;DHT22;2755;50.728;7.108;2023-07-09T18:36:50;24.40;94.80
5466;DHT22;2755;50.728;7.108;2023-07-09T18:41:43;23.20;95.00
5466;DHT22;2755;50.728;7.108;2023-07-09T18:44:18;24.40;92.80
5466;DHT22;2755;50.728;7.108;2023-07-09T18:46:45;24.40;92.00
5466;DHT22;2755;50.728;7.108;2023-07-09T18:49:11;24.50;94.50
5466;DHT22;2755;50.728;7.108;2023-07-09T18:51:38;24.30;91.80
5466;DHT22;2755;50.728;7.108;2023-07-09T18:54:14;24.30;94.20
5466;DHT22;2755;50.728;7.108;2023-07-09T18:56:42;24.20;94.20
5466;DHT22;2755;50.728;7.108;2023-07-09T18:59:16;24.10;91.90
5466;DHT22;2755;50.728;7.108;2023-07-09T19:01:42;24.20;93.20
5466;DHT22;2755;50.728;7.108;2023-07-09T19:04:15;24.00;92.80
5466;DHT22;2755;50.728;7.108;2023-07-09T19:06:44;24.60;96.10
5466;DHT22;2755;50.728;7.108;2023-07-09T19:09:18;23.80;93.50
5466;DHT22;2755;50.728;7.108;2023-07-09T19:11:44;23.70;94.90
5466;DHT22;2755;50.728;7.108;2023-07-09T19:14:10;23.90;95.30
5466;DHT22;2755;50.728;7.108;2023-07-09T19:16:36;23.40;96.70
5466;DHT22;2755;50.728;7.108;2023-07-09T19:26:24;23.20;98.80
5466;DHT22;2755;50.728;7.108;2023-07-09T19:28:49;22.90;99.20
5466;DHT22;2755;50.728;7.108;2023-07-09T19:31:15;23.30;98.40
5466;DHT22;2755;50.728;7.108;2023-07-09T19:36:23;23.10;98.20
5466;DHT22;2755;50.728;7.108;2023-07-09T19:38:50;23.00;98.50
5466;DHT22;2755;50.728;7.108;2023-07-09T19:48:42;22.80;99.90
5466;DHT22;2755;50.728;7.108;2023-07-09T19:53:34;22.60;99.90
5466;DHT22;2755;50.728;7.108;2023-07-09T19:56:00;22.40;99.90
5466;DHT22;2755;50.728;7.108;2023-07-09T19:58:25;22.70;99.90
5466;DHT22;2755;50.728;7.108;2023-07-09T20:00:51;22.70;99.90
5466;DHT22;2755;50.728;7.108;2023-07-09T20:03:25;22.60;99.90
5466;DHT22;2755;50.728;7.108;2023-07-09T20:08:19;22.30;99.90
5466;DHT22;2755;50.728;7.108;2023-07-09T20:15:41;22.40;99.90
5466;DHT22;2755;50.728;7.108;2023-07-09T20:18:17;22.20;99.90
5466;DHT22;2755;50.728;7.108;2023-07-09T20:23:12;22.60;99.90
5466;DHT22;2755;50.728;7.108;2023-07-09T20:28:25;22.10;99.90
5466;DHT22;2755;50.728;7.108;2023-07-09T20:30:52;22.10;99.90
5466;DHT22;2755;50.728;7.108;2023-07-09T20:33:19;21.80;99.90
5466;DHT22;2755;50.728;7.108;2023-07-09T20:35:44;22.50;99.90
5466;DHT22;2755;50.728;7.108;2023-07-09T20:38:13;21.90;99.90
5466;DHT22;2755;50.728;7.108;2023-07-09T20:40:39;22.60;99.90
5466;DHT22;2755;50.728;7.108;2023-07-09T20:43:27;22.00;99.90
5466;DHT22;2755;50.728;7.108;2023-07-09T20:48:20;22.10;99.90
5466;DHT22;2755;50.728;7.108;2023-07-09T20:50:46;22.10;99.90
5466;DHT22;2755;50.728;7.108;2023-07-09T20:53:14;21.90;99.90
5466;DHT22;2755;50.728;7.108;2023-07-09T20:55:40;22.40;99.90
5466;DHT22;2755;50.728;7.108;2023-07-09T20:58:17;22.20;99.90
5466;DHT22;2755;50.728;7.108;2023-07-09T21:00:43;22.30;99.90
5466;DHT22;2755;50.728;7.108;2023-07-09T21:03:13;20.70;99.90